Time;durP1;ratioP1;P1;durP2;ratioP2;P2;SDS_P1;SDS_P2;PMS_P1;PMS_P2;Temp;Humidity;BMP_temperature;BMP_pressure;BME280_temperature;BME280_humidity;BME280_pressure;Samples;Min_cycle;Max_cycle;Signal;HPM_P1;HPM_P2
2021/01/18 00:00:20;;;;;;;29.98;12.60;;;;;;;-12.70;57.15;100874.97;1758378;80;21045;-79
2021/01/18 00:02:48;;;;;;;24.25;12.88;;;;;;;-12.59;57.01;100869.50;1758434;80;20938;-78
2021/01/18 00:05:17;;;;;;;22.60;12.63;;;;;;;-12.50;56.54;100864.34;1758440;80;21146;-79
2021/01/18 00:07:47;;;;;;;31.75;13.38;;;;;;;-12.58;56.27;100864.93;1758297;79;20950;-77
2021/01/18 00:10:17;;;;;;;24.43;11.22;;;;;;;-12.68;55.87;100873.36;1750779;80;20938;-78
2021/01/18 00:12:51;;;;;;;21.62;10.95;;;;;;;-12.76;56.41;100864.22;1747824;80;20935;-79
2021/01/18 00:15:21;;;;;;;25.55;13.22;;;;;;;-12.81;56.43;100854.35;1747977;80;21516;-78
2021/01/18 00:17:51;;;;;;;22.40;11.53;;;;;;;-12.85;56.71;100857.15;1747647;80;21383;-78
2021/01/18 00:20:21;;;;;;;27.20;13.30;;;;;;;-12.84;56.84;100863.94;1747680;80;20962;-79
2021/01/18 00:22:49;;;;;;;19.50;11.10;;;;;;;-12.81;56.77;100861.92;1747349;80;20959;-77
2021/01/18 00:25:23;;;;;;;24.52;12.37;;;;;;;-12.81;56.89;100861.92;1747208;80;20923;-78
2021/01/18 00:27:51;;;;;;;22.45;12.05;;;;;;;-12.77;56.91;100849.88;1747191;80;21045;-78
2021/01/18 00:30:23;;;;;;;22.65;11.38;;;;;;;-12.72;56.89;100845.86;1747206;80;22063;-77
2021/01/18 00:32:51;;;;;;;22.10;11.18;;;;;;;-12.70;56.79;100847.19;1747098;80;21045;-75
2021/01/18 00:35:20;;;;;;;20.92;11.88;;;;;;;-12.74;56.73;100840.77;1775544;79;21002;-77
2021/01/18 00:37:51;;;;;;;22.17;12.20;;;;;;;-12.79;56.24;100840.98;1747109;80;20955;-77
2021/01/18 00:40:21;;;;;;;23.00;12.80;;;;;;;-12.86;56.33;100839.44;1747186;80;21015;-78
2021/01/18 00:42:49;;;;;;;19.90;10.78;;;;;;;-12.95;56.65;100847.11;1747244;80;21141;-77
2021/01/18 00:45:19;;;;;;;25.50;11.78;;;;;;;-12.97;57.02;100851.64;1747079;80;20974;-79
2021/01/18 00:47:51;;;;;;;25.92;13.38;;;;;;;-12.96;57.21;100852.98;1747218;80;21363;-75
2021/01/18 00:50:25;;;;;;;18.60;11.95;;;;;;;-12.92;57.12;100848.03;1747293;80;21373;-76
2021/01/18 00:52:54;;;;;;;22.27;12.55;;;;;;;-12.87;57.25;100836.44;1747416;80;21001;-76
2021/01/18 00:55:24;;;;;;;17.95;10.70;;;;;;;-12.86;56.91;100840.70;1747007;80;20992;-76
2021/01/18 00:57:54;;;;;;;22.65;12.18;;;;;;;-12.89;56.50;100845.23;1745639;80;21030;-76
2021/01/18 01:00:27;;;;;;;19.42;9.60;;;;;;;-12.97;56.62;100844.08;1747046;80;21448;-75
2021/01/18 01:02:57;;;;;;;21.95;11.43;;;;;;;-13.01;56.80;100849.39;1747505;80;20959;-76
2021/01/18 01:05:28;;;;;;;21.68;12.00;;;;;;;-13.11;56.59;100849.86;1747438;80;20959;-77
2021/01/18 01:07:58;;;;;;;28.12;12.10;;;;;;;-13.22;56.82;100844.79;1747682;79;22055;-77
2021/01/18 01:10:31;;;;;;;23.27;11.03;;;;;;;-13.30;57.08;100849.55;1747470;80;21337;-76
2021/01/18 01:13:05;;;;;;;20.15;11.53;;;;;;;-13.40;57.56;100847.06;1747496;80;20915;-78
2021/01/18 01:15:33;;;;;;;;;;;;;;;-13.46;57.57;100848.48;1750163;80;21010;-77
2021/01/18 01:18:04;;;;;;;19.15;10.68;;;;;;;-13.49;57.56;100849.22;1747797;80;20159;-77
2021/01/18 01:20:32;;;;;;;25.05;14.20;;;;;;;-13.50;57.60;100842.84;1747722;79;21118;-78
2021/01/18 01:23:00;;;;;;;21.12;12.05;;;;;;;-13.52;57.79;100857.91;1747688;80;20947;-76
2021/01/18 01:25:28;;;;;;;31.55;12.90;;;;;;;-13.53;57.70;100848.62;1748765;80;20971;-75
2021/01/18 01:27:56;;;;;;;22.73;10.63;;;;;;;-13.52;57.78;100846.55;1747400;80;20990;-76
2021/01/18 01:30:25;;;;;;;22.98;10.53;;;;;;;-13.52;57.78;100854.13;1747277;80;20977;-76
2021/01/18 01:32:54;;;;;;;26.60;12.03;;;;;;;-13.55;57.82;100852.75;1747102;80;21390;-76
2021/01/18 01:35:24;;;;;;;23.90;13.20;;;;;;;-13.61;58.00;100858.38;1747208;80;20943;-76
2021/01/18 01:37:53;;;;;;;24.85;11.40;;;;;;;-13.68;58.23;100859.34;1747648;80;21001;-77
2021/01/18 01:40:21;;;;;;;23.50;12.43;;;;;;;-13.73;58.39;100857.04;1775723;80;21026;-77
2021/01/18 01:42:49;;;;;;;26.42;12.53;;;;;;;-13.71;58.53;100858.82;1747228;80;20954;-76
2021/01/18 01:45:18;;;;;;;27.00;12.73;;;;;;;-13.70;58.47;100852.97;1747341;80;22325;-77
2021/01/18 01:47:49;;;;;;;24.60;12.63;;;;;;;-13.67;58.57;100857.27;1746924;80;20966;-77
2021/01/18 01:50:31;;;;;;;28.80;14.28;;;;;;;-13.68;58.59;100855.16;1747109;80;20946;-79
2021/01/18 01:53:10;;;;;;;29.12;12.90;;;;;;;-13.63;58.73;100858.72;1746992;80;20962;-78
2021/01/18 01:55:38;;;;;;;28.02;12.60;;;;;;;-13.56;58.70;100867.40;1747254;80;20918;-78
2021/01/18 01:58:07;;;;;;;22.95;10.93;;;;;;;-13.54;58.45;100860.76;1747209;79;21641;-77
2021/01/18 02:00:40;;;;;;;25.00;14.10;;;;;;;-13.50;58.31;100866.39;1747212;80;20962;-78
2021/01/18 02:03:15;;;;;;;26.50;13.20;;;;;;;-13.54;58.22;100868.33;1747157;80;20962;-76
2021/01/18 02:05:43;;;;;;;24.57;11.33;;;;;;;-13.57;58.24;100864.42;1747667;80;21001;-77
2021/01/18 02:08:11;;;;;;;21.77;12.60;;;;;;;-13.62;58.65;100864.23;1747863;80;21111;-77
2021/01/18 02:10:39;;;;;;;20.50;10.98;;;;;;;-13.62;58.85;100864.23;1752724;80;21176;-77
2021/01/18 02:13:25;;;;;;;19.65;12.70;;;;;;;-13.65;58.59;100870.43;1785501;79;21058;-76
2021/01/18 02:16:43;;;;;;;24.95;11.63;;;;;;;-13.66;58.77;100874.13;1754809;80;20965;-75
2021/01/18 02:19:50;;;;;;;22.30;12.73;;;;;;;-13.69;58.68;100873.98;1710298;82;21600;-75
2021/01/18 02:23:03;;;;;;;22.77;12.65;;;;;;;-13.79;59.05;100886.20;1709684;82;21415;-75
2021/01/18 02:25:36;;;;;;;25.65;13.15;;;;;;;-13.79;59.26;100884.09;1708788;82;21366;-74
2021/01/18 02:28:56;;;;;;;28.62;18.32;;;;;;;-13.73;59.17;100887.29;1835560;77;27882;-75
2021/01/18 02:31:51;;;;;;;33.42;15.90;;;;;;;-13.77;59.21;100889.66;1788588;78;21066;-76
2021/01/18 02:34:50;;;;;;;28.75;13.58;;;;;;;-13.79;59.28;100896.70;1782831;78;21947;-76
2021/01/18 02:37:38;;;;;;;24.05;11.80;;;;;;;-13.75;59.46;100896.44;1772298;78;21133;-75
2021/01/18 02:40:14;;;;;;;25.10;12.70;;;;;;;-13.65;59.52;100893.12;1787644;78;21417;-75
2021/01/18 02:42:50;;;;;;;27.82;14.15;;;;;;;-13.62;59.26;100888.19;1782759;78;21401;-76
2021/01/18 02:45:21;;;;;;;22.55;12.50;;;;;;;-13.67;59.15;100893.83;1788284;78;21445;-77
2021/01/18 02:47:49;;;;;;;26.82;14.58;;;;;;;-13.70;59.36;100898.34;1788095;78;21869;-76
2021/01/18 02:50:18;;;;;;;25.65;12.43;;;;;;;-13.70;59.60;100892.45;1787879;78;21021;-75
2021/01/18 02:52:48;;;;;;;29.25;13.88;;;;;;;-13.69;59.71;100901.34;1763122;78;21011;-75
2021/01/18 02:55:17;;;;;;;26.25;12.63;;;;;;;-13.67;59.68;100903.91;1738884;78;20955;-76
2021/01/18 02:57:48;;;;;;;26.45;14.10;;;;;;;-13.67;59.86;100904.80;1788332;78;21080;-76
2021/01/18 03:00:25;;;;;;;28.47;14.68;;;;;;;-13.67;59.85;100900.12;1788071;78;21158;-75
2021/01/18 03:03:13;;;;;;;25.45;13.03;;;;;;;-13.69;59.82;100903.87;1788191;78;21576;-76
2021/01/18 03:05:59;;;;;;;27.50;13.28;;;;;;;-13.67;60.10;100902.64;1787846;78;20924;-78
2021/01/18 03:08:46;;;;;;;25.23;14.98;;;;;;;-13.59;60.18;100905.95;1782657;78;21035;-76
2021/01/18 03:11:25;;;;;;;26.27;11.80;;;;;;;-13.53;60.20;100904.52;1820041;78;20987;-75
2021/01/18 03:13:58;;;;;;;26.62;12.45;;;;;;;-13.51;60.03;100896.20;1763549;78;20978;-75
2021/01/18 03:16:29;;;;;;;28.38;14.20;;;;;;;-13.50;60.01;100899.59;1787276;78;21007;-75
2021/01/18 03:18:59;;;;;;;26.80;12.35;;;;;;;-13.49;59.88;100896.25;1788239;78;21030;-75
2021/01/18 03:21:27;;;;;;;24.47;13.32;;;;;;;-13.45;59.90;100900.25;1762950;78;21606;-76
2021/01/18 03:23:55;;;;;;;29.00;14.20;;;;;;;-13.39;59.97;100903.41;1788156;78;21018;-76
2021/01/18 03:26:25;;;;;;;24.55;13.78;;;;;;;-13.31;60.04;100894.50;1788095;78;21780;-76
2021/01/18 03:28:54;;;;;;;25.20;13.55;;;;;;;-13.22;59.80;100897.36;1788283;78;21588;-76
2021/01/18 03:31:22;;;;;;;24.75;13.13;;;;;;;-13.15;59.75;100898.47;1788438;78;21492;-75
2021/01/18 03:33:50;;;;;;;25.60;13.85;;;;;;;-13.12;59.34;100897.73;1788368;78;20943;-76
2021/01/18 03:36:18;;;;;;;32.58;12.63;;;;;;;-13.13;59.31;100896.02;1790502;78;21029;-76
2021/01/18 03:38:46;;;;;;;22.55;12.85;;;;;;;-13.16;59.20;100896.36;1790985;78;21159;-76
2021/01/18 03:41:14;;;;;;;25.25;13.70;;;;;;;-13.18;59.04;100897.95;1788455;78;21406;-75
2021/01/18 03:43:42;;;;;;;26.68;12.60;;;;;;;-13.18;59.19;100900.88;1788098;78;20962;-75
2021/01/18 03:46:10;;;;;;;29.65;15.48;;;;;;;-13.14;59.17;100912.80;1788145;78;20959;-77
2021/01/18 03:48:37;;;;;;;32.35;13.90;;;;;;;-13.06;59.09;100912.71;1787720;78;21425;-74
2021/01/18 03:51:05;;;;;;;29.07;14.05;;;;;;;-12.96;59.05;100906.36;1787612;78;21165;-75
2021/01/18 03:53:33;;;;;;;24.63;14.50;;;;;;;-12.86;59.00;100907.19;1787913;78;20964;-75
2021/01/18 03:56:02;;;;;;;28.73;14.58;;;;;;;-12.77;58.61;100906.28;1819925;78;20951;-74
2021/01/18 03:58:31;;;;;;;27.25;12.43;;;;;;;-12.68;58.49;100907.05;1786738;78;20972;-74
2021/01/18 04:00:59;;;;;;;24.98;12.23;;;;;;;-12.61;58.25;100900.56;1787854;78;21362;-75
2021/01/18 04:03:28;;;;;;;30.52;13.98;;;;;;;-12.68;57.68;100907.05;1819820;78;21797;-75
2021/01/18 04:05:56;;;;;;;27.00;12.55;;;;;;;-12.79;57.88;100909.15;1787554;78;21007;-74
2021/01/18 04:08:25;;;;;;;23.98;13.88;;;;;;;-12.85;57.98;100910.16;1787410;78;21441;-75
2021/01/18 04:10:52;;;;;;;25.12;14.03;;;;;;;-12.87;58.13;100910.91;1787569;78;20947;-75
2021/01/18 04:13:22;;;;;;;24.60;13.68;;;;;;;-12.83;58.36;100900.13;1787653;78;21381;-75
2021/01/18 04:15:50;;;;;;;27.98;13.60;;;;;;;-12.83;58.39;100898.88;1787619;78;21156;-75
2021/01/18 04:18:19;;;;;;;24.75;12.60;;;;;;;-12.81;58.26;100904.84;1787346;78;21074;-76
2021/01/18 04:20:47;;;;;;;27.62;14.15;;;;;;;-12.81;58.25;100898.53;1787618;78;21449;-77
2021/01/18 04:23:15;;;;;;;30.72;15.32;;;;;;;-12.84;58.04;100904.33;1787427;78;21034;-76
2021/01/18 04:25:44;;;;;;;29.90;14.38;;;;;;;-12.83;58.19;100911.09;1819437;78;21568;-76
2021/01/18 04:28:12;;;;;;;28.30;14.43;;;;;;;-12.85;58.01;100898.80;1787500;78;21022;-75
2021/01/18 04:30:39;;;;;;;25.23;13.08;;;;;;;-12.92;57.95;100891.80;1787347;78;21094;-77
2021/01/18 04:33:08;;;;;;;29.45;14.47;;;;;;;-12.97;58.01;100894.14;1787637;78;20959;-76
2021/01/18 04:35:39;;;;;;;29.25;14.85;;;;;;;-13.03;58.20;100899.35;1787484;78;21062;-77
2021/01/18 04:38:07;;;;;;;32.58;14.55;;;;;;;-13.04;58.27;100899.76;1787642;78;20995;-77
2021/01/18 04:40:35;;;;;;;23.83;13.68;;;;;;;-13.02;58.43;100909.52;1787510;78;21171;-76
2021/01/18 04:43:04;;;;;;;26.57;13.18;;;;;;;-13.01;58.43;100912.89;1787509;78;20959;-77
2021/01/18 04:45:32;;;;;;;28.30;14.47;;;;;;;-12.93;58.67;100911.55;1787553;78;20959;-80
2021/01/18 04:48:00;;;;;;;29.20;15.13;;;;;;;-12.88;58.75;100914.25;1819268;78;20951;-77
2021/01/18 04:50:29;;;;;;;33.90;15.95;;;;;;;-12.82;58.66;100928.38;1787505;78;21453;-79
2021/01/18 04:53:14;;;;;;;28.62;15.15;;;;;;;-12.75;58.76;100948.02;1787307;78;21094;-78
2021/01/18 04:55:51;;;;;;;33.73;14.87;;;;;;;-12.67;58.53;100960.92;1787496;78;20979;-79
2021/01/18 04:58:19;;;;;;;29.95;16.00;;;;;;;-12.60;58.32;100959.98;1787584;78;21030;-78
2021/01/18 05:00:52;;;;;;;33.35;15.03;;;;;;;-12.57;58.04;100957.97;1787623;78;21011;-75
2021/01/18 05:03:23;;;;;;;36.83;15.38;;;;;;;-12.57;57.68;100961.76;1787352;78;20955;-77
2021/01/18 05:06:15;;;;;;;30.77;14.85;;;;;;;-12.70;57.97;100969.66;1787500;78;22137;-77
2021/01/18 05:09:20;;;;;;;30.88;15.35;;;;;;;-12.75;58.38;100966.54;1787471;78;20959;-78
2021/01/18 05:11:49;;;;;;;25.27;13.78;;;;;;;-12.72;58.15;100954.44;1787579;78;21448;-76
2021/01/18 05:14:17;;;;;;;27.07;13.50;;;;;;;-12.86;58.08;100952.63;1786579;78;20987;-76
2021/01/18 05:16:56;;;;;;;31.17;15.30;;;;;;;-12.99;58.56;100941.17;1787751;78;21003;-77
2021/01/18 05:19:26;;;;;;;31.42;14.90;;;;;;;-13.01;58.80;100940.66;1787513;78;21004;-77
2021/01/18 05:21:54;;;;;;;28.15;15.28;;;;;;;-13.00;58.99;100941.13;1787787;78;21401;-77
2021/01/18 05:24:22;;;;;;;30.50;15.00;;;;;;;-13.01;59.21;100944.03;1787638;78;21493;-77
2021/01/18 05:27:05;;;;;;;24.92;14.05;;;;;;;-13.04;59.30;100942.66;1788292;78;21505;-76
2021/01/18 05:29:36;;;;;;;28.57;15.72;;;;;;;-13.04;59.38;100943.92;1800890;78;21369;-77
2021/01/18 05:32:21;;;;;;;26.60;14.87;;;;;;;-13.04;59.57;100955.69;1800796;78;22153;-78
2021/01/18 05:34:53;;;;;;;29.32;14.95;;;;;;;-13.00;59.71;100949.97;1768078;77;20955;-75
2021/01/18 05:37:20;;;;;;;28.00;17.20;;;;;;;-12.97;59.75;100952.60;1800657;78;20947;-75
2021/01/18 05:39:49;;;;;;;27.15;15.35;;;;;;;-12.95;59.75;100956.91;1800681;78;21455;-76
2021/01/18 05:42:22;;;;;;;30.65;13.93;;;;;;;-12.85;59.47;100956.86;1800632;78;21010;-75
2021/01/18 05:44:50;;;;;;;28.00;14.83;;;;;;;-12.85;59.56;100959.39;1828383;78;21404;-76
2021/01/18 05:47:18;;;;;;;33.42;17.25;;;;;;;-12.89;59.71;100964.25;1800579;77;20971;-76
2021/01/18 05:49:50;;;;;;;32.70;18.57;;;;;;;-12.99;59.71;100961.77;1800645;78;20987;-76
2021/01/18 05:52:29;;;;;;;34.45;17.00;;;;;;;-12.95;60.02;100959.44;1800652;78;21011;-76
2021/01/18 05:55:26;;;;;;;37.98;18.87;;;;;;;-12.85;59.77;100970.75;1800688;77;20983;-75
2021/01/18 05:58:02;;;;;;;28.73;16.65;;;;;;;-12.80;59.65;100982.33;1800542;78;22038;-76
2021/01/18 06:00:35;;;;;;;32.13;14.87;;;;;;;-12.76;59.40;100984.14;1800834;78;20959;-75
2021/01/18 06:03:08;;;;;;;35.45;17.85;;;;;;;-12.76;59.49;100975.31;1801344;78;20911;-76
2021/01/18 06:05:41;;;;;;;;;;;;;;;-12.79;59.45;100991.61;1804008;78;21006;-76
2021/01/18 06:08:18;;;;;;;34.45;21.05;;;;;;;-12.84;59.58;100986.78;1801055;78;20148;-76
2021/01/18 06:10:48;;;;;;;39.23;20.23;;;;;;;-12.87;59.69;100987.91;1801231;78;21179;-76
2021/01/18 06:13:33;;;;;;;36.48;17.67;;;;;;;-12.86;60.07;100994.69;1802473;78;21046;-76
2021/01/18 06:16:10;;;;;;;40.60;22.65;;;;;;;-12.82;60.01;100998.66;1803758;78;20979;-75
2021/01/18 06:18:42;;;;;;;39.63;27.20;;;;;;;-12.71;59.84;101004.15;1802134;77;20974;-75
2021/01/18 06:21:11;;;;;;;30.97;16.48;;;;;;;-12.60;59.70;101005.44;1795330;78;21365;-78
2021/01/18 06:23:40;;;;;;;39.40;20.45;;;;;;;-12.56;59.21;100998.83;1800749;78;21758;-78
2021/01/18 06:26:09;;;;;;;62.88;37.50;;;;;;;-12.55;59.26;101001.42;1800513;78;20982;-80
2021/01/18 06:28:38;;;;;;;54.45;32.40;;;;;;;-12.49;59.20;100998.67;1828130;77;21437;-77
2021/01/18 06:31:10;;;;;;;45.75;22.65;;;;;;;-12.38;59.05;100998.69;1800312;78;20986;-78
2021/01/18 06:33:48;;;;;;;38.92;18.50;;;;;;;-12.32;58.61;101000.19;1800612;78;20999;-78
2021/01/18 06:36:23;;;;;;;38.90;16.95;;;;;;;-12.28;58.44;101000.77;1800587;78;21173;-78
2021/01/18 06:39:05;;;;;;;34.75;17.60;;;;;;;-12.29;58.19;100988.95;1800649;78;21029;-79
2021/01/18 06:41:37;;;;;;;37.75;17.20;;;;;;;-12.37;58.30;100993.70;1800681;78;21386;-76
2021/01/18 06:44:05;;;;;;;29.05;16.15;;;;;;;-12.38;58.44;100998.30;1800597;78;21527;-79
2021/01/18 06:46:36;;;;;;;29.55;16.75;;;;;;;-12.34;58.27;100991.69;1800532;78;20971;-78
2021/01/18 06:49:08;;;;;;;36.33;17.23;;;;;;;-12.39;58.16;100994.04;1795529;78;21485;-78
2021/01/18 06:51:37;;;;;;;36.95;18.37;;;;;;;-12.44;58.05;100993.01;1799432;78;21054;-78
2021/01/18 06:54:10;;;;;;;25.65;15.63;;;;;;;-12.48;57.89;100998.73;1828170;78;21377;-78
2021/01/18 06:56:48;;;;;;;48.85;21.65;;;;;;;-12.53;57.81;101005.28;1800587;78;21440;-80
2021/01/18 06:59:49;;;;;;;34.15;18.42;;;;;;;-12.56;57.97;101012.72;1800415;78;21038;-79
2021/01/18 07:02:27;;;;;;;29.70;15.98;;;;;;;-12.58;58.11;101023.16;1800539;78;21137;-79
2021/01/18 07:05:10;;;;;;;37.15;19.00;;;;;;;-12.63;58.04;101023.38;1800343;78;21023;-82
2021/01/18 07:07:39;;;;;;;33.25;16.02;;;;;;;-12.64;58.26;101021.67;1799872;78;21034;-77
2021/01/18 07:10:11;;;;;;;36.53;16.55;;;;;;;-12.60;58.04;101016.80;1800263;77;20920;-77
2021/01/18 07:12:39;;;;;;;39.18;18.10;;;;;;;-12.54;57.68;101017.05;1800439;78;21072;-76
2021/01/18 07:15:09;;;;;;;34.27;19.35;;;;;;;-12.53;57.60;101023.81;1775006;78;21159;-78
2021/01/18 07:17:55;;;;;;;40.30;23.77;;;;;;;-12.53;57.58;101014.98;1800798;78;20959;-80
2021/01/18 07:20:27;;;;;;;41.50;17.95;;;;;;;-12.54;57.79;101019.58;1801007;78;20939;-83
2021/01/18 07:23:18;;;;;;;33.60;18.17;;;;;;;-12.47;57.61;101018.53;1799278;78;21042;-77
2021/01/18 07:25:50;;;;;;;32.73;16.93;;;;;;;-12.39;57.63;101024.77;1795609;80;20987;-81
2021/01/18 07:28:19;;;;;;;29.02;16.30;;;;;;;-12.35;57.41;101024.94;1750041;81;21178;-79
2021/01/18 07:30:49;;;;;;;32.48;16.60;;;;;;;-12.28;57.38;101022.66;1727718;81;21069;-77
2021/01/18 07:33:19;;;;;;;46.35;20.17;;;;;;;-12.17;57.18;101031.11;1727605;81;21049;-76
2021/01/18 07:35:51;;;;;;;29.67;14.80;;;;;;;-12.03;56.85;101020.66;1722476;81;20926;-75
2021/01/18 07:38:27;;;;;;;33.53;17.15;;;;;;;-11.97;56.25;101015.44;1727847;81;20987;-76
2021/01/18 07:41:11;;;;;;;34.88;16.35;;;;;;;-12.05;56.01;101009.63;1727713;81;21178;-77
2021/01/18 07:43:52;;;;;;;31.85;17.82;;;;;;;-12.18;56.19;101014.61;1727736;81;20958;-77
2021/01/18 07:46:31;;;;;;;31.37;17.57;;;;;;;-12.25;56.46;101013.92;1727718;81;20930;-76
2021/01/18 07:49:17;;;;;;;34.92;16.57;;;;;;;-12.21;56.53;101001.46;1727927;81;21021;-76
2021/01/18 07:52:25;;;;;;;33.73;17.65;;;;;;;-11.99;56.82;101009.45;1890154;76;22975;-76
2021/01/18 07:54:56;;;;;;;37.15;16.52;;;;;;;-11.76;56.71;101024.58;1749835;80;21364;-76
2021/01/18 07:57:40;;;;;;;35.78;17.90;;;;;;;-11.48;55.95;101028.58;1755871;79;20989;-77
2021/01/18 08:00:24;;;;;;;31.70;14.67;;;;;;;-11.41;55.72;101033.45;1749325;80;21454;-76
2021/01/18 08:02:58;;;;;;;30.10;15.68;;;;;;;-11.34;55.22;101037.91;1780861;79;21144;-78
2021/01/18 08:05:31;;;;;;;35.03;18.17;;;;;;;-11.33;54.85;101029.95;1775539;80;21520;-79
2021/01/18 08:08:18;;;;;;;33.08;17.48;;;;;;;-11.41;54.88;101030.92;1781233;79;20955;-80
2021/01/18 08:11:13;;;;;;;39.03;20.92;;;;;;;-11.48;54.86;101034.05;1679852;84;21723;-78
2021/01/18 08:13:57;;;;;;;38.92;20.57;;;;;;;-11.52;54.89;101030.53;1751540;80;20967;-81
2021/01/18 08:16:42;;;;;;;34.78;19.27;;;;;;;-11.43;55.06;101030.41;1751420;80;20997;-79
2021/01/18 08:20:14;;;;;;;39.60;19.37;;;;;;;-11.27;54.70;101014.56;1877729;75;22614;-80
2021/01/18 08:22:45;;;;;;;37.67;18.75;;;;;;;-11.16;54.54;101021.27;1762596;79;20946;-81
2021/01/18 08:25:15;;;;;;;36.42;16.67;;;;;;;-10.98;54.40;101022.30;1778892;79;21042;-79
2021/01/18 08:27:48;;;;;;;35.65;18.87;;;;;;;-10.92;53.76;101028.81;1757887;79;20946;-79
2021/01/18 08:30:29;;;;;;;31.55;18.23;;;;;;;-10.91;53.64;101017.04;1721008;80;21057;-81
2021/01/18 08:33:04;;;;;;;38.78;19.27;;;;;;;-10.88;53.84;101023.05;1766107;80;20998;-80
2021/01/18 08:35:54;;;;;;;42.35;20.97;;;;;;;-10.81;53.38;101021.98;1788752;77;21072;-80
2021/01/18 08:38:28;;;;;;;37.63;17.60;;;;;;;-10.74;53.54;101021.38;1787627;77;22394;-77
2021/01/18 08:41:10;;;;;;;36.03;19.25;;;;;;;-10.65;53.69;101012.42;1799176;77;21563;-78
2021/01/18 08:43:52;;;;;;;32.80;18.17;;;;;;;-10.58;53.46;101003.34;1811180;78;20986;-81
2021/01/18 08:46:34;;;;;;;34.45;18.05;;;;;;;-10.49;53.14;101001.09;1841323;77;21006;-80
2021/01/18 08:49:32;;;;;;;36.93;20.10;;;;;;;-10.48;52.25;101000.27;1749460;80;20935;-80
2021/01/18 08:52:01;;;;;;;36.58;19.82;;;;;;;-10.62;52.65;101009.13;1767991;79;21157;-79
2021/01/18 08:54:35;;;;;;;33.98;18.20;;;;;;;-10.75;52.89;101005.73;1739039;80;21004;-78
2021/01/18 08:57:24;;;;;;;34.60;18.15;;;;;;;-10.74;52.89;101003.64;1762111;80;20955;-79
2021/01/18 09:00:16;;;;;;;34.88;19.23;;;;;;;-10.70;52.92;100995.33;1814191;77;21025;-80
2021/01/18 09:02:42;;;;;;;34.00;18.02;;;;;;;-10.57;52.92;100990.27;1794551;77;20962;-80
2021/01/18 09:05:21;;;;;;;46.10;22.77;;;;;;;-10.55;52.80;100989.91;1796200;78;21186;-79
2021/01/18 09:07:49;;;;;;;40.63;19.10;;;;;;;-10.61;52.78;100985.48;1786037;78;20998;-79
2021/01/18 09:10:23;;;;;;;34.70;17.77;;;;;;;-10.63;52.94;100982.05;1789002;77;20973;-79
2021/01/18 09:12:51;;;;;;;35.08;19.67;;;;;;;-10.56;52.94;100981.45;1800007;78;20977;-80
2021/01/18 09:15:24;;;;;;;40.65;20.43;;;;;;;-10.51;52.89;100973.58;1796893;77;20942;-81
2021/01/18 09:17:52;;;;;;;35.60;19.52;;;;;;;-10.42;52.71;100975.53;1798568;78;21314;-81
2021/01/18 09:20:21;;;;;;;34.70;18.70;;;;;;;-10.29;52.49;100971.67;1816600;77;21086;-81
2021/01/18 09:22:53;;;;;;;36.33;19.48;;;;;;;-10.21;52.21;100962.60;1750641;79;21042;-79
2021/01/18 09:25:25;;;;;;;31.02;18.65;;;;;;;-10.29;51.95;100967.49;1743074;80;21518;-81
2021/01/18 09:27:53;;;;;;;32.40;18.57;;;;;;;-10.45;51.69;100960.22;1748713;80;21066;-79
2021/01/18 09:30:24;;;;;;;33.08;16.40;;;;;;;-10.65;51.98;100949.46;1766068;80;22270;-79
2021/01/18 09:32:57;;;;;;;39.18;18.45;;;;;;;-10.83;52.40;100950.16;1703705;80;21061;-79
2021/01/18 09:35:29;;;;;;;34.15;17.10;;;;;;;-10.93;52.49;100952.40;1744735;80;21057;-80
2021/01/18 09:37:58;;;;;;;35.52;19.23;;;;;;;-10.96;52.93;100961.55;1745405;80;20992;-80
2021/01/18 09:40:30;;;;;;;32.95;19.25;;;;;;;-10.95;53.26;100957.81;1766645;79;21140;-81
2021/01/18 09:43:00;;;;;;;30.05;15.55;;;;;;;-10.94;53.58;100960.79;1732168;80;21599;-81
2021/01/18 09:45:30;;;;;;;38.35;19.82;;;;;;;-10.87;53.16;100966.91;1741847;80;20955;-81
2021/01/18 09:48:06;;;;;;;32.70;17.07;;;;;;;-10.83;53.10;100970.42;1748931;80;21587;-80
2021/01/18 09:50:36;;;;;;;33.95;19.52;;;;;;;-10.80;52.79;100967.59;1719111;82;21086;-82
2021/01/18 09:53:08;;;;;;;29.72;17.23;;;;;;;-10.81;52.99;100970.92;1798733;78;21038;-81
2021/01/18 09:55:47;;;;;;;35.35;18.70;;;;;;;-10.79;52.74;100976.90;1810648;77;21010;-82
2021/01/18 09:58:39;;;;;;;32.03;16.85;;;;;;;-10.79;52.56;100984.50;1801114;77;21081;-82
2021/01/18 10:01:11;;;;;;;36.83;20.12;;;;;;;-10.68;52.41;100980.63;1745462;80;21587;-79
2021/01/18 10:03:42;;;;;;;39.10;17.85;;;;;;;-10.51;52.49;100972.31;1797016;77;20946;-81
2021/01/18 10:06:14;;;;;;;33.05;18.45;;;;;;;-10.36;52.38;100974.43;1796959;77;21487;-80
2021/01/18 10:08:48;;;;;;;32.58;17.62;;;;;;;-10.30;51.88;100969.55;1798801;77;21035;-81
2021/01/18 10:11:25;;;;;;;35.92;18.12;;;;;;;-10.30;51.74;100974.62;1794889;78;21610;-80
2021/01/18 10:14:02;;;;;;;28.45;15.43;;;;;;;-10.21;51.84;100978.67;1807628;77;21061;-82
2021/01/18 10:16:37;;;;;;;34.18;18.50;;;;;;;-10.03;51.69;100976.23;1788420;77;21013;-81
2021/01/18 10:19:18;;;;;;;34.50;19.05;;;;;;;-9.95;51.30;100976.05;1813418;77;20939;-80
2021/01/18 10:21:45;;;;;;;35.23;17.10;;;;;;;-9.90;51.32;100969.84;1813173;77;21174;-82
2021/01/18 10:24:33;;;;;;;35.92;18.45;;;;;;;-9.82;51.12;100978.12;1795550;77;21105;-82
2021/01/18 10:27:15;;;;;;;34.38;18.02;;;;;;;-9.77;50.95;100974.86;1804136;77;20961;-79
2021/01/18 10:29:45;;;;;;;32.70;18.45;;;;;;;-9.67;50.83;100980.25;1743816;79;21543;-80
2021/01/18 10:32:13;;;;;;;36.88;20.40;;;;;;;-9.56;50.58;100979.25;1793918;77;21069;-80
2021/01/18 10:34:45;;;;;;;53.98;23.27;;;;;;;-9.45;50.26;100988.42;1786535;78;21939;-80
2021/01/18 10:37:19;;;;;;;41.18;21.05;;;;;;;-9.33;50.22;100982.84;1794621;77;20966;-81
2021/01/18 10:39:49;;;;;;;33.23;18.92;;;;;;;-9.17;50.09;100975.65;1792114;77;20994;-78
2021/01/18 10:42:22;;;;;;;31.23;15.75;;;;;;;-9.01;49.71;100972.23;1792499;78;21041;-80
2021/01/18 10:44:56;;;;;;;35.52;20.00;;;;;;;-8.91;49.27;100976.73;1809135;77;20951;-82
2021/01/18 10:47:28;;;;;;;30.40;16.53;;;;;;;-8.79;49.16;100979.56;1805785;77;21650;-79
2021/01/18 10:49:59;;;;;;;31.37;16.30;;;;;;;-8.62;48.54;100975.31;1800889;77;21089;-79
2021/01/18 10:52:40;;;;;;;33.23;18.20;;;;;;;-8.64;48.31;100970.19;1748167;80;20963;-81
2021/01/18 10:55:18;;;;;;;32.75;18.85;;;;;;;-8.65;48.64;100965.91;1796166;78;21069;-78
2021/01/18 10:57:53;;;;;;;30.02;17.35;;;;;;;-8.57;47.97;100955.94;1778570;77;21034;-79
2021/01/18 11:00:23;;;;;;;38.08;19.85;;;;;;;-8.47;47.77;100950.25;1801178;78;20965;-80
2021/01/18 11:03:03;;;;;;;34.10;17.00;;;;;;;-8.44;47.71;100952.84;1803797;77;21001;-77
2021/01/18 11:05:37;;;;;;;39.92;18.27;;;;;;;-8.45;47.43;100948.56;1798643;78;20946;-82
2021/01/18 11:08:08;;;;;;;25.80;15.28;;;;;;;-8.40;47.14;100938.08;1802340;77;21578;-80
2021/01/18 11:10:42;;;;;;;29.27;15.85;;;;;;;-8.26;47.18;100940.06;1792895;77;21006;-80
2021/01/18 11:13:16;;;;;;;25.08;14.68;;;;;;;-8.08;46.84;100939.18;1743220;80;21038;-78
2021/01/18 11:15:47;;;;;;;29.18;16.10;;;;;;;-8.02;45.90;100927.86;1773827;78;21053;-79
2021/01/18 11:18:20;;;;;;;25.27;15.10;;;;;;;-8.06;45.90;100930.31;1806301;77;21518;-79
2021/01/18 11:20:51;;;;;;;32.45;16.40;;;;;;;-8.23;45.62;100932.48;1746528;80;21392;-78
2021/01/18 11:23:24;;;;;;;30.30;17.77;;;;;;;-8.55;46.02;100931.41;1799247;79;21038;-78
2021/01/18 11:28:16;;;;;;;37.28;20.37;;;;;;;-8.83;46.94;100918.05;1844962;76;22573;-78
2021/01/18 11:30:45;;;;;;;35.25;20.40;;;;;;;-8.92;47.36;100929.27;1822841;77;20958;-78
2021/01/18 11:33:13;;;;;;;29.63;15.58;;;;;;;-8.98;47.54;100921.48;1754225;80;22402;-77
2021/01/18 11:35:43;;;;;;;28.52;17.80;;;;;;;-8.91;47.34;100906.86;1784853;80;20951;-77